sensor_id;sensor_type;location;lat;lon;timestamp;pressure;altitude;pressure_sealevel;temperature;humidity
35798;BME280;21918;49.940;7.774;2022-07-06T00:01:59;99475.38;;;25.61;37.58
35798;BME280;21918;49.940;7.774;2022-07-06T00:04:26;99482.28;;;25.60;37.92
35798;BME280;21918;49.940;7.774;2022-07-06T00:06:53;99484.28;;;25.63;37.86
35798;BME280;21918;49.940;7.774;2022-07-06T00:09:20;99476.22;;;25.55;36.93
35798;BME280;21918;49.940;7.774;2022-07-06T00:11:48;99477.91;;;25.45;37.22
35798;BME280;21918;49.940;7.774;2022-07-06T00:14:14;99481.16;;;25.44;37.39
35798;BME280;21918;49.940;7.774;2022-07-06T00:16:41;99477.50;;;25.47;37.71
35798;BME280;21918;49.940;7.774;2022-07-06T00:19:08;99471.03;;;25.43;37.59
35798;BME280;21918;49.940;7.774;2022-07-06T00:21:35;99472.66;;;25.44;37.87
35798;BME280;21918;49.940;7.774;2022-07-06T00:24:02;99480.34;;;25.47;38.15
35798;BME280;21918;49.940;7.774;2022-07-06T00:26:29;99468.56;;;25.48;37.85
35798;BME280;21918;49.940;7.774;2022-07-06T00:28:57;99473.03;;;25.49;37.45
35798;BME280;21918;49.940;7.774;2022-07-06T00:31:24;99468.63;;;25.38;37.72
35798;BME280;21918;49.940;7.774;2022-07-06T00:33:50;99475.50;;;25.40;38.17
35798;BME280;21918;49.940;7.774;2022-07-06T00:36:18;99473.44;;;25.44;38.01
35798;BME280;21918;49.940;7.774;2022-07-06T00:38:44;99469.78;;;25.47;38.54
35798;BME280;21918;49.940;7.774;2022-07-06T00:41:12;99473.41;;;25.51;38.58
35798;BME280;21918;49.940;7.774;2022-07-06T00:43:50;99481.16;;;25.40;38.19
35798;BME280;21918;49.940;7.774;2022-07-06T00:46:18;99469.81;;;25.40;38.26
35798;BME280;21918;49.940;7.774;2022-07-06T00:48:45;99477.50;;;25.40;38.28
35798;BME280;21918;49.940;7.774;2022-07-06T00:51:12;99484.44;;;25.35;38.17
35798;BME280;21918;49.940;7.774;2022-07-06T00:53:40;99483.63;;;25.31;37.95
35798;BME280;21918;49.940;7.774;2022-07-06T00:56:07;99490.13;;;25.28;38.43
35798;BME280;21918;49.940;7.774;2022-07-06T00:58:35;99486.84;;;25.30;38.38
35798;BME280;21918;49.940;7.774;2022-07-06T01:01:02;99486.50;;;25.21;37.59
35798;BME280;21918;49.940;7.774;2022-07-06T01:03:30;99485.31;;;25.11;37.87
35798;BME280;21918;49.940;7.774;2022-07-06T01:05:58;99490.59;;;25.09;38.33
35798;BME280;21918;49.940;7.774;2022-07-06T01:08:25;99487.34;;;25.14;38.49
35798;BME280;21918;49.940;7.774;2022-07-06T01:10:52;99491.44;;;25.10;38.16
35798;BME280;21918;49.940;7.774;2022-07-06T01:13:19;99493.44;;;25.09;38.69
35798;BME280;21918;49.940;7.774;2022-07-06T01:15:45;99494.66;;;25.05;37.94
35798;BME280;21918;49.940;7.774;2022-07-06T01:18:12;99497.09;;;25.03;38.28
35798;BME280;21918;49.940;7.774;2022-07-06T01:20:41;99496.31;;;24.99;38.24
35798;BME280;21918;49.940;7.774;2022-07-06T01:23:08;99487.00;;;24.95;38.36
35798;BME280;21918;49.940;7.774;2022-07-06T01:25:35;99491.84;;;24.94;38.38
35798;BME280;21918;49.940;7.774;2022-07-06T01:28:02;99501.97;;;24.99;38.57
35798;BME280;21918;49.940;7.774;2022-07-06T01:30:29;99496.34;;;24.88;38.49
35798;BME280;21918;49.940;7.774;2022-07-06T01:32:56;99494.34;;;24.85;38.46
35798;BME280;21918;49.940;7.774;2022-07-06T01:35:24;99490.28;;;24.86;38.50
35798;BME280;21918;49.940;7.774;2022-07-06T01:37:54;99487.44;;;24.86;38.78
35798;BME280;21918;49.940;7.774;2022-07-06T01:40:20;99494.31;;;24.89;39.07
35798;BME280;21918;49.940;7.774;2022-07-06T01:42:49;99496.34;;;24.95;39.26
35798;BME280;21918;49.940;7.774;2022-07-06T01:45:16;99494.28;;;24.99;39.16
35798;BME280;21918;49.940;7.774;2022-07-06T01:47:43;99493.47;;;24.99;39.51
35798;BME280;21918;49.940;7.774;2022-07-06T01:50:09;99495.94;;;24.97;39.41
35798;BME280;21918;49.940;7.774;2022-07-06T01:52:36;99490.25;;;24.97;39.57
35798;BME280;21918;49.940;7.774;2022-07-06T01:55:05;99491.03;;;24.97;39.53
35798;BME280;21918;49.940;7.774;2022-07-06T01:57:32;99499.16;;;24.95;39.66
35798;BME280;21918;49.940;7.774;2022-07-06T01:59:59;99494.69;;;24.94;39.52
35798;BME280;21918;49.940;7.774;2022-07-06T02:02:26;99498.38;;;24.91;39.51
35798;BME280;21918;49.940;7.774;2022-07-06T02:04:53;99494.72;;;24.87;39.67
35798;BME280;21918;49.940;7.774;2022-07-06T02:07:19;99491.50;;;24.85;39.66
35798;BME280;21918;49.940;7.774;2022-07-06T02:09:46;99489.50;;;24.82;39.70
35798;BME280;21918;49.940;7.774;2022-07-06T02:12:14;99496.75;;;24.83;39.42
35798;BME280;21918;49.940;7.774;2022-07-06T02:14:41;99502.03;;;24.81;39.97
35798;BME280;21918;49.940;7.774;2022-07-06T02:17:08;99493.56;;;24.81;40.05
35798;BME280;21918;49.940;7.774;2022-07-06T02:19:34;99501.63;;;24.79;39.92
35798;BME280;21918;49.940;7.774;2022-07-06T02:22:01;99493.94;;;24.76;39.81
35798;BME280;21918;49.940;7.774;2022-07-06T02:24:28;99493.53;;;24.74;39.90
35798;BME280;21918;49.940;7.774;2022-07-06T02:26:55;99502.47;;;24.69;40.05
35798;BME280;21918;49.940;7.774;2022-07-06T02:29:23;99496.00;;;24.65;39.79
35798;BME280;21918;49.940;7.774;2022-07-06T02:31:51;99494.38;;;24.53;39.73
35798;BME280;21918;49.940;7.774;2022-07-06T02:34:18;99496.00;;;24.51;40.23
35798;BME280;21918;49.940;7.774;2022-07-06T02:36:44;99493.59;;;24.49;40.03
35798;BME280;21918;49.940;7.774;2022-07-06T02:39:11;99497.19;;;24.50;40.19
35798;BME280;21918;49.940;7.774;2022-07-06T02:41:38;99491.13;;;24.51;40.23
35798;BME280;21918;49.940;7.774;2022-07-06T02:44:06;99493.97;;;24.55;40.30
35798;BME280;21918;49.940;7.774;2022-07-06T02:46:34;99502.47;;;24.51;40.21
35798;BME280;21918;49.940;7.774;2022-07-06T02:49:01;99500.84;;;24.40;40.24
35798;BME280;21918;49.940;7.774;2022-07-06T02:51:27;99500.47;;;24.38;39.93
35798;BME280;21918;49.940;7.774;2022-07-06T02:53:54;99508.56;;;24.32;40.20
35798;BME280;21918;49.940;7.774;2022-07-06T02:56:21;99502.09;;;24.25;40.59
35798;BME280;21918;49.940;7.774;2022-07-06T02:58:47;99503.69;;;24.26;40.47
35798;BME280;21918;49.940;7.774;2022-07-06T03:01:14;99507.34;;;24.23;40.49
35798;BME280;21918;49.940;7.774;2022-07-06T03:03:42;99506.53;;;24.22;40.55
35798;BME280;21918;49.940;7.774;2022-07-06T03:06:09;99512.22;;;24.22;40.36
35798;BME280;21918;49.940;7.774;2022-07-06T03:08:36;99514.63;;;24.20;40.50
35798;BME280;21918;49.940;7.774;2022-07-06T03:11:03;99506.16;;;24.17;40.21
35798;BME280;21918;49.940;7.774;2022-07-06T03:13:30;99512.59;;;24.10;40.26
35798;BME280;21918;49.940;7.774;2022-07-06T03:15:57;99512.63;;;24.07;40.75
35798;BME280;21918;49.940;7.774;2022-07-06T03:18:24;99529.19;;;24.12;40.80
35798;BME280;21918;49.940;7.774;2022-07-06T03:20:52;99532.41;;;24.17;40.61
35798;BME280;21918;49.940;7.774;2022-07-06T03:23:19;99521.91;;;24.18;40.78
35798;BME280;21918;49.940;7.774;2022-07-06T03:25:46;99537.66;;;24.19;40.56
35798;BME280;21918;49.940;7.774;2022-07-06T03:28:13;99527.97;;;24.16;40.57
35798;BME280;21918;49.940;7.774;2022-07-06T03:30:39;99541.31;;;24.16;40.96
35798;BME280;21918;49.940;7.774;2022-07-06T03:33:20;99538.47;;;24.09;40.85
35798;BME280;21918;49.940;7.774;2022-07-06T03:35:47;99534.84;;;24.19;40.79
35798;BME280;21918;49.940;7.774;2022-07-06T03:38:15;99533.63;;;24.20;40.91
35798;BME280;21918;49.940;7.774;2022-07-06T03:40:42;99542.09;;;24.20;40.58
35798;BME280;21918;49.940;7.774;2022-07-06T03:43:10;99537.25;;;24.10;40.52
35798;BME280;21918;49.940;7.774;2022-07-06T03:45:36;99532.41;;;24.00;40.43
35798;BME280;21918;49.940;7.774;2022-07-06T03:48:04;99532.34;;;23.93;40.87
35798;BME280;21918;49.940;7.774;2022-07-06T03:50:30;99535.63;;;23.95;40.64
35798;BME280;21918;49.940;7.774;2022-07-06T03:52:57;99546.16;;;23.98;40.92
35798;BME280;21918;49.940;7.774;2022-07-06T03:55:26;99537.66;;;23.98;40.63
35798;BME280;21918;49.940;7.774;2022-07-06T03:57:53;99540.44;;;23.91;40.56
35798;BME280;21918;49.940;7.774;2022-07-06T04:00:20;99547.69;;;23.85;40.69
35798;BME280;21918;49.940;7.774;2022-07-06T04:02:46;99550.53;;;23.81;40.57
35798;BME280;21918;49.940;7.774;2022-07-06T04:05:13;99546.06;;;23.73;40.80
35798;BME280;21918;49.940;7.774;2022-07-06T04:07:40;99544.41;;;23.62;40.73
35798;BME280;21918;49.940;7.774;2022-07-06T04:10:08;99550.06;;;23.62;40.52
35798;BME280;21918;49.940;7.774;2022-07-06T04:12:40;99547.25;;;23.58;40.88
35798;BME280;21918;49.940;7.774;2022-07-06T04:15:08;99557.31;;;23.52;40.46
35798;BME280;21918;49.940;7.774;2022-07-06T04:17:35;99552.03;;;23.44;40.79
35798;BME280;21918;49.940;7.774;2022-07-06T04:20:23;99549.59;;;23.46;40.87
35798;BME280;21918;49.940;7.774;2022-07-06T04:22:50;99554.06;;;23.47;40.68
35798;BME280;21918;49.940;7.774;2022-07-06T04:25:17;99554.03;;;23.43;40.65
35798;BME280;21918;49.940;7.774;2022-07-06T04:27:46;99552.81;;;23.41;40.78
35798;BME280;21918;49.940;7.774;2022-07-06T04:30:13;99562.13;;;23.41;40.29
35798;BME280;21918;49.940;7.774;2022-07-06T04:32:39;99553.63;;;23.34;40.61
35798;BME280;21918;49.940;7.774;2022-07-06T04:35:07;99547.91;;;23.27;39.98
35798;BME280;21918;49.940;7.774;2022-07-06T04:37:34;99541.81;;;23.22;40.11
35798;BME280;21918;49.940;7.774;2022-07-06T04:40:01;99545.84;;;23.21;40.25
35798;BME280;21918;49.940;7.774;2022-07-06T04:42:27;99548.22;;;23.12;40.01
35798;BME280;21918;49.940;7.774;2022-07-06T04:44:55;99543.38;;;23.09;40.16
35798;BME280;21918;49.940;7.774;2022-07-06T04:47:22;99551.47;;;23.14;40.36
35798;BME280;21918;49.940;7.774;2022-07-06T04:49:49;99551.88;;;23.16;39.90
35798;BME280;21918;49.940;7.774;2022-07-06T04:52:18;99555.50;;;23.16;40.27
35798;BME280;21918;49.940;7.774;2022-07-06T04:54:45;99560.34;;;23.12;40.25
35798;BME280;21918;49.940;7.774;2022-07-06T04:57:11;99562.34;;;23.12;40.06
35798;BME280;21918;49.940;7.774;2022-07-06T04:59:38;99556.25;;;23.06;39.46
35798;BME280;21918;49.940;7.774;2022-07-06T05:02:06;99566.78;;;23.06;39.76
35798;BME280;21918;49.940;7.774;2022-07-06T05:04:33;99574.38;;;23.02;39.47
35798;BME280;21918;49.940;7.774;2022-07-06T05:07:00;99567.88;;;22.91;38.88
35798;BME280;21918;49.940;7.774;2022-07-06T05:09:27;99573.47;;;22.84;38.90
35798;BME280;21918;49.940;7.774;2022-07-06T05:11:53;99567.84;;;22.84;38.97
35798;BME280;21918;49.940;7.774;2022-07-06T05:14:20;99573.06;;;22.82;39.23
35798;BME280;21918;49.940;7.774;2022-07-06T05:16:47;99567.00;;;22.83;39.38
35798;BME280;21918;49.940;7.774;2022-07-06T05:19:15;99569.06;;;22.86;39.66
35798;BME280;21918;49.940;7.774;2022-07-06T05:21:42;99573.56;;;22.94;39.78
35798;BME280;21918;49.940;7.774;2022-07-06T05:24:09;99578.44;;;23.01;39.68
35798;BME280;21918;49.940;7.774;2022-07-06T05:26:35;99572.78;;;23.01;39.38
35798;BME280;21918;49.940;7.774;2022-07-06T05:29:02;99569.94;;;22.97;39.09
35798;BME280;21918;49.940;7.774;2022-07-06T05:31:29;99568.31;;;22.96;39.14
35798;BME280;21918;49.940;7.774;2022-07-06T05:33:56;99567.53;;;22.96;38.86
35798;BME280;21918;49.940;7.774;2022-07-06T05:36:24;99564.31;;;22.97;38.96
35798;BME280;21918;49.940;7.774;2022-07-06T05:38:50;99563.09;;;23.02;39.01
35798;BME280;21918;49.940;7.774;2022-07-06T05:41:17;99558.28;;;23.06;39.23
35798;BME280;21918;49.940;7.774;2022-07-06T05:43:44;99561.94;;;23.10;39.48
35798;BME280;21918;49.940;7.774;2022-07-06T05:46:10;99565.56;;;23.10;39.25
35798;BME280;21918;49.940;7.774;2022-07-06T05:48:37;99562.34;;;23.08;38.98
35798;BME280;21918;49.940;7.774;2022-07-06T05:51:21;99558.25;;;23.02;39.24
35798;BME280;21918;49.940;7.774;2022-07-06T05:53:49;99561.91;;;23.06;39.28
35798;BME280;21918;49.940;7.774;2022-07-06T05:56:16;99564.34;;;23.04;39.37
35798;BME280;21918;49.940;7.774;2022-07-06T05:58:43;99564.34;;;23.08;39.74
35798;BME280;21918;49.940;7.774;2022-07-06T06:01:10;99559.47;;;23.05;39.54
35798;BME280;21918;49.940;7.774;2022-07-06T06:03:37;99570.00;;;23.08;39.45
35798;BME280;21918;49.940;7.774;2022-07-06T06:06:04;99568.34;;;23.03;39.57
35798;BME280;21918;49.940;7.774;2022-07-06T06:08:30;99565.13;;;23.05;39.83
35798;BME280;21918;49.940;7.774;2022-07-06T06:10:58;99567.56;;;23.06;39.40
35798;BME280;21918;49.940;7.774;2022-07-06T06:13:26;99570.00;;;23.04;39.19
35798;BME280;21918;49.940;7.774;2022-07-06T06:15:53;99568.34;;;23.00;39.24
35798;BME280;21918;49.940;7.774;2022-07-06T06:18:19;99561.91;;;23.03;39.73
35798;BME280;21918;49.940;7.774;2022-07-06T06:20:46;99573.25;;;23.10;39.72
35798;BME280;21918;49.940;7.774;2022-07-06T06:23:13;99563.59;;;23.14;39.69
35798;BME280;21918;49.940;7.774;2022-07-06T06:25:40;99578.16;;;23.20;39.40
35798;BME280;21918;49.940;7.774;2022-07-06T06:28:09;99577.72;;;23.18;39.38
35798;BME280;21918;49.940;7.774;2022-07-06T06:30:37;99580.13;;;23.12;38.93
35798;BME280;21918;49.940;7.774;2022-07-06T06:33:09;99581.28;;;23.08;39.08
35798;BME280;21918;49.940;7.774;2022-07-06T06:35:37;99581.28;;;23.08;38.90
35798;BME280;21918;49.940;7.774;2022-07-06T06:38:04;99592.16;;;23.02;38.73
35798;BME280;21918;49.940;7.774;2022-07-06T06:40:31;99594.13;;;22.95;38.25
35798;BME280;21918;49.940;7.774;2022-07-06T06:43:09;99590.06;;;22.89;38.20
35798;BME280;21918;49.940;7.774;2022-07-06T06:45:36;99582.78;;;22.84;38.34
35798;BME280;21918;49.940;7.774;2022-07-06T06:48:04;99589.25;;;22.88;38.55
35798;BME280;21918;49.940;7.774;2022-07-06T06:50:33;99590.09;;;22.92;38.86
35798;BME280;21918;49.940;7.774;2022-07-06T06:53:02;99595.75;;;22.96;38.71
35798;BME280;21918;49.940;7.774;2022-07-06T06:55:28;99610.31;;;23.01;38.85
35798;BME280;21918;49.940;7.774;2022-07-06T06:57:55;99613.19;;;23.08;38.81
35798;BME280;21918;49.940;7.774;2022-07-06T07:00:25;99614.81;;;23.06;38.65
35798;BME280;21918;49.940;7.774;2022-07-06T07:02:52;99619.25;;;23.07;38.78
35798;BME280;21918;49.940;7.774;2022-07-06T07:05:19;99628.53;;;23.07;38.60
35798;BME280;21918;49.940;7.774;2022-07-06T07:07:46;99616.41;;;23.07;38.64
35798;BME280;21918;49.940;7.774;2022-07-06T07:10:12;99630.53;;;23.07;38.76
35798;BME280;21918;49.940;7.774;2022-07-06T07:12:45;99618.44;;;23.10;38.62
35798;BME280;21918;49.940;7.774;2022-07-06T07:15:12;99637.84;;;23.11;38.57
35798;BME280;21918;49.940;7.774;2022-07-06T07:17:40;99625.72;;;23.11;38.57
35798;BME280;21918;49.940;7.774;2022-07-06T07:20:08;99630.16;;;23.12;38.03
35798;BME280;21918;49.940;7.774;2022-07-06T07:22:35;99629.75;;;23.13;38.03
35798;BME280;21918;49.940;7.774;2022-07-06T07:25:02;99613.66;;;23.21;38.06
35798;BME280;21918;49.940;7.774;2022-07-06T07:27:29;99615.81;;;23.34;38.41
35798;BME280;21918;49.940;7.774;2022-07-06T07:29:56;99618.28;;;23.46;38.29
35798;BME280;21918;49.940;7.774;2022-07-06T07:32:22;99613.84;;;23.49;38.29
35798;BME280;21918;49.940;7.774;2022-07-06T07:34:50;99610.63;;;23.57;38.13
35798;BME280;21918;49.940;7.774;2022-07-06T07:37:17;99611.03;;;23.56;38.14
35798;BME280;21918;49.940;7.774;2022-07-06T07:39:44;99611.47;;;23.54;38.20
35798;BME280;21918;49.940;7.774;2022-07-06T07:42:11;99625.63;;;23.61;38.15
35798;BME280;21918;49.940;7.774;2022-07-06T07:44:37;99615.91;;;23.59;37.49
35798;BME280;21918;49.940;7.774;2022-07-06T07:47:06;99618.34;;;23.57;37.74
35798;BME280;21918;49.940;7.774;2022-07-06T07:49:33;99619.50;;;23.56;37.22
35798;BME280;21918;49.940;7.774;2022-07-06T07:52:01;99623.22;;;23.67;36.51
35798;BME280;21918;49.940;7.774;2022-07-06T07:54:28;99617.97;;;23.65;37.44
35798;BME280;21918;49.940;7.774;2022-07-06T07:56:57;99616.38;;;23.75;37.20
35798;BME280;21918;49.940;7.774;2022-07-06T07:59:26;99625.28;;;23.77;36.89
35798;BME280;21918;49.940;7.774;2022-07-06T08:01:53;99622.41;;;23.63;36.31
35798;BME280;21918;49.940;7.774;2022-07-06T08:04:20;99617.13;;;23.54;36.41
35798;BME280;21918;49.940;7.774;2022-07-06T08:06:48;99620.75;;;23.58;36.48
35798;BME280;21918;49.940;7.774;2022-07-06T08:09:18;99617.13;;;23.54;35.79
35798;BME280;21918;49.940;7.774;2022-07-06T08:11:44;99607.34;;;23.45;36.02
35798;BME280;21918;49.940;7.774;2022-07-06T08:14:11;99604.94;;;23.50;36.57
35798;BME280;21918;49.940;7.774;2022-07-06T08:16:39;99605.81;;;23.61;36.58
35798;BME280;21918;49.940;7.774;2022-07-06T08:19:06;99610.25;;;23.66;36.42
35798;BME280;21918;49.940;7.774;2022-07-06T08:21:33;99607.88;;;23.68;36.39
35798;BME280;21918;49.940;7.774;2022-07-06T08:24:01;99614.72;;;23.67;36.09
35798;BME280;21918;49.940;7.774;2022-07-06T08:26:30;99608.28;;;23.70;35.90
35798;BME280;21918;49.940;7.774;2022-07-06T08:28:58;99612.31;;;23.76;36.10
35798;BME280;21918;49.940;7.774;2022-07-06T08:31:35;99613.97;;;23.77;36.34
35798;BME280;21918;49.940;7.774;2022-07-06T08:34:03;99615.59;;;23.85;36.51
35798;BME280;21918;49.940;7.774;2022-07-06T08:36:30;99613.16;;;23.83;36.43
35798;BME280;21918;49.940;7.774;2022-07-06T08:38:56;99618.44;;;23.85;36.42
35798;BME280;21918;49.940;7.774;2022-07-06T08:41:25;99616.41;;;23.78;36.16
35798;BME280;21918;49.940;7.774;2022-07-06T08:43:56;99613.94;;;23.73;35.86
35798;BME280;21918;49.940;7.774;2022-07-06T08:46:23;99608.31;;;23.77;36.53
35798;BME280;21918;49.940;7.774;2022-07-06T08:48:49;99614.38;;;23.86;36.12
35798;BME280;21918;49.940;7.774;2022-07-06T08:51:17;99618.44;;;23.85;36.23
35798;BME280;21918;49.940;7.774;2022-07-06T08:53:45;99619.25;;;23.89;35.45
35798;BME280;21918;49.940;7.774;2022-07-06T08:56:14;99608.31;;;23.84;35.29
35798;BME280;21918;49.940;7.774;2022-07-06T08:58:49;99599.81;;;23.80;35.78
35798;BME280;21918;49.940;7.774;2022-07-06T09:01:18;99612.41;;;23.93;35.71
35798;BME280;21918;49.940;7.774;2022-07-06T09:03:45;99611.66;;;24.00;35.67
35798;BME280;21918;49.940;7.774;2022-07-06T09:06:16;99615.28;;;24.04;35.71
35798;BME280;21918;49.940;7.774;2022-07-06T09:08:46;99602.75;;;24.12;35.95
35798;BME280;21918;49.940;7.774;2022-07-06T09:11:14;99612.47;;;24.11;35.78
35798;BME280;21918;49.940;7.774;2022-07-06T09:13:41;99629.44;;;24.14;35.67
35798;BME280;21918;49.940;7.774;2022-07-06T09:16:12;99609.22;;;24.16;35.42
35798;BME280;21918;49.940;7.774;2022-07-06T09:18:41;99616.91;;;24.19;35.59
35798;BME280;21918;49.940;7.774;2022-07-06T09:21:10;99610.47;;;24.29;35.78
35798;BME280;21918;49.940;7.774;2022-07-06T09:23:37;99604.03;;;24.35;35.86
35798;BME280;21918;49.940;7.774;2022-07-06T09:26:05;99613.31;;;24.39;35.88
35798;BME280;21918;49.940;7.774;2022-07-06T09:28:55;99624.63;;;24.29;35.09
35798;BME280;21918;49.940;7.774;2022-07-06T09:31:22;99621.34;;;24.20;35.11
35798;BME280;21918;49.940;7.774;2022-07-06T09:33:58;99611.25;;;24.19;35.22
35798;BME280;21918;49.940;7.774;2022-07-06T09:36:42;99612.47;;;24.18;35.22
35798;BME280;21918;49.940;7.774;2022-07-06T09:39:20;99623.00;;;24.24;34.89
35798;BME280;21918;49.940;7.774;2022-07-06T09:41:51;99610.88;;;24.31;34.54
35798;BME280;21918;49.940;7.774;2022-07-06T09:44:21;99611.69;;;24.35;34.78
35798;BME280;21918;49.940;7.774;2022-07-06T09:46:50;99614.94;;;24.44;35.22
35798;BME280;21918;49.940;7.774;2022-07-06T09:49:20;99617.78;;;24.51;35.31
35798;BME280;21918;49.940;7.774;2022-07-06T09:51:51;99630.28;;;24.57;34.87
35798;BME280;21918;49.940;7.774;2022-07-06T09:54:21;99624.25;;;24.55;34.42
35798;BME280;21918;49.940;7.774;2022-07-06T09:56:48;99626.28;;;24.58;34.00
35798;BME280;21918;49.940;7.774;2022-07-06T09:59:18;99620.59;;;24.58;33.60
35798;BME280;21918;49.940;7.774;2022-07-06T10:01:47;99616.59;;;24.66;33.97
35798;BME280;21918;49.940;7.774;2022-07-06T10:04:14;99623.06;;;24.70;34.17
35798;BME280;21918;49.940;7.774;2022-07-06T10:06:45;99619.00;;;24.75;34.08
35798;BME280;21918;49.940;7.774;2022-07-06T10:09:12;99623.03;;;24.84;34.46
35798;BME280;21918;49.940;7.774;2022-07-06T10:12:12;99609.69;;;24.95;34.66
35798;BME280;21918;49.940;7.774;2022-07-06T10:14:40;99604.38;;;25.11;34.51
35798;BME280;21918;49.940;7.774;2022-07-06T10:17:07;99600.69;;;25.21;34.64
35798;BME280;21918;49.940;7.774;2022-07-06T10:19:34;99622.97;;;25.23;34.44
35798;BME280;21918;49.940;7.774;2022-07-06T10:22:04;99627.03;;;25.29;34.52
35798;BME280;21918;49.940;7.774;2022-07-06T10:24:31;99616.09;;;25.38;33.56
35798;BME280;21918;49.940;7.774;2022-07-06T10:26:59;99610.78;;;25.54;33.43
35798;BME280;21918;49.940;7.774;2022-07-06T10:29:26;99602.66;;;25.59;33.14
35798;BME280;21918;49.940;7.774;2022-07-06T10:31:54;99604.63;;;25.69;33.24
35798;BME280;21918;49.940;7.774;2022-07-06T10:34:21;99600.94;;;25.79;32.70
35798;BME280;21918;49.940;7.774;2022-07-06T10:36:49;99603.31;;;25.84;33.07
35798;BME280;21918;49.940;7.774;2022-07-06T10:39:32;99600.50;;;25.84;33.38
35798;BME280;21918;49.940;7.774;2022-07-06T10:42:40;99600.84;;;25.90;33.15
35798;BME280;21918;49.940;7.774;2022-07-06T10:45:08;99611.31;;;26.10;32.27
35798;BME280;21918;49.940;7.774;2022-07-06T10:47:36;99603.88;;;26.30;31.76
35798;BME280;21918;49.940;7.774;2022-07-06T10:50:04;99595.69;;;26.43;31.57
35798;BME280;21918;49.940;7.774;2022-07-06T10:52:57;99599.59;;;26.59;31.78
35798;BME280;21918;49.940;7.774;2022-07-06T10:55:31;99600.16;;;26.88;31.92
35798;BME280;21918;49.940;7.774;2022-07-06T10:57:59;99591.56;;;26.95;31.34
35798;BME280;21918;49.940;7.774;2022-07-06T11:00:26;99601.00;;;26.88;31.69
35798;BME280;21918;49.940;7.774;2022-07-06T11:03:33;99590.94;;;26.77;32.25
35798;BME280;21918;49.940;7.774;2022-07-06T11:06:01;99584.25;;;26.98;31.64
35798;BME280;21918;49.940;7.774;2022-07-06T11:08:48;99593.66;;;26.91;31.66
35798;BME280;21918;49.940;7.774;2022-07-06T11:11:17;99586.34;;;26.90;31.01
35798;BME280;21918;49.940;7.774;2022-07-06T11:13:53;99601.69;;;26.99;30.78
35798;BME280;21918;49.940;7.774;2022-07-06T11:16:21;99595.91;;;27.10;30.15
35798;BME280;21918;49.940;7.774;2022-07-06T11:18:50;99596.72;;;27.11;30.49
35798;BME280;21918;49.940;7.774;2022-07-06T11:21:32;99607.34;;;27.03;30.99
35798;BME280;21918;49.940;7.774;2022-07-06T11:24:00;99612.16;;;27.10;30.37
35798;BME280;21918;49.940;7.774;2022-07-06T11:26:30;99603.94;;;27.19;30.19
35798;BME280;21918;49.940;7.774;2022-07-06T11:28:58;99593.38;;;27.19;29.95
35798;BME280;21918;49.940;7.774;2022-07-06T11:31:26;99589.97;;;27.35;29.90
35798;BME280;21918;49.940;7.774;2022-07-06T11:33:54;99590.66;;;27.46;29.66
35798;BME280;21918;49.940;7.774;2022-07-06T11:36:21;99592.94;;;27.58;29.81
35798;BME280;21918;49.940;7.774;2022-07-06T11:38:50;99591.31;;;27.57;30.25
35798;BME280;21918;49.940;7.774;2022-07-06T11:41:17;99584.75;;;27.63;30.79
35798;BME280;21918;49.940;7.774;2022-07-06T11:43:46;99591.97;;;27.68;30.02
35798;BME280;21918;49.940;7.774;2022-07-06T11:46:26;99595.41;;;27.56;30.23
35798;BME280;21918;49.940;7.774;2022-07-06T11:48:55;99597.50;;;27.52;30.36
35798;BME280;21918;49.940;7.774;2022-07-06T11:51:23;99592.97;;;27.54;30.23
35798;BME280;21918;49.940;7.774;2022-07-06T11:53:51;99593.00;;;27.51;29.92
35798;BME280;21918;49.940;7.774;2022-07-06T11:56:19;99580.69;;;27.61;29.87
35798;BME280;21918;49.940;7.774;2022-07-06T11:58:49;99588.78;;;27.66;29.70
35798;BME280;21918;49.940;7.774;2022-07-06T12:01:16;99582.16;;;27.72;29.82
35798;BME280;21918;49.940;7.774;2022-07-06T12:03:44;99587.44;;;27.74;29.67
35798;BME280;21918;49.940;7.774;2022-07-06T12:06:18;99587.88;;;27.72;30.08
35798;BME280;21918;49.940;7.774;2022-07-06T12:08:47;99583.81;;;27.73;29.97
35798;BME280;21918;49.940;7.774;2022-07-06T12:11:23;99597.22;;;27.73;29.96
35798;BME280;21918;49.940;7.774;2022-07-06T12:13:53;99581.47;;;27.95;27.91
35798;BME280;21918;49.940;7.774;2022-07-06T12:16:21;99570.38;;;28.04;28.49
35798;BME280;21918;49.940;7.774;2022-07-06T12:18:54;99578.16;;;28.00;29.25
35798;BME280;21918;49.940;7.774;2022-07-06T12:21:21;99578.63;;;27.95;29.75
35798;BME280;21918;49.940;7.774;2022-07-06T12:23:49;99586.28;;;28.01;29.09
35798;BME280;21918;49.940;7.774;2022-07-06T12:26:17;99578.69;;;27.91;28.52
35798;BME280;21918;49.940;7.774;2022-07-06T12:28:44;99570.66;;;27.83;29.06
35798;BME280;21918;49.940;7.774;2022-07-06T12:31:30;99583.72;;;27.80;29.18
35798;BME280;21918;49.940;7.774;2022-07-06T12:33:57;99580.78;;;27.87;28.59
35798;BME280;21918;49.940;7.774;2022-07-06T12:36:24;99575.84;;;27.91;28.47
35798;BME280;21918;49.940;7.774;2022-07-06T12:38:51;99580.78;;;27.84;28.55
35798;BME280;21918;49.940;7.774;2022-07-06T12:41:31;99575.53;;;27.86;28.37
35798;BME280;21918;49.940;7.774;2022-07-06T12:44:04;99571.63;;;28.03;28.90
35798;BME280;21918;49.940;7.774;2022-07-06T12:46:34;99574.34;;;28.10;28.77
35798;BME280;21918;49.940;7.774;2022-07-06T12:49:10;99560.53;;;28.08;29.31
35798;BME280;21918;49.940;7.774;2022-07-06T12:52:08;99573.75;;;27.95;28.87
35798;BME280;21918;49.940;7.774;2022-07-06T12:54:40;99581.41;;;28.02;29.41
35798;BME280;21918;49.940;7.774;2022-07-06T12:57:10;99582.19;;;28.02;28.43
35798;BME280;21918;49.940;7.774;2022-07-06T12:59:40;99583.44;;;28.01;28.76
35798;BME280;21918;49.940;7.774;2022-07-06T13:02:16;99575.00;;;27.94;29.35
35798;BME280;21918;49.940;7.774;2022-07-06T13:04:54;99572.25;;;27.84;29.54
35798;BME280;21918;49.940;7.774;2022-07-06T13:07:21;99569.34;;;27.91;29.79
35798;BME280;21918;49.940;7.774;2022-07-06T13:09:48;99579.63;;;27.85;30.04